logo
Search for airport 
image banner adimage banner adimage banner ad
image banner ad

18VT - Springfield Hospital

Located in Springfield, United States

ICAO - 18VT, IATA -

Data provided by Airmate  

General information

Coordinates: N43°17'54" W72°29'41"
Elevation is 589 feet MSL.
 
View others Airports in Vermont

Operational data

Special qualification required
Current time UTC:
Current local time:
METAR: KVSF 131354Z AUTO VRB06KT 10SM BKN034 OVC070 08/02 A2943 RMK AO2 SLP969 T00830022
View NOTAMs / SUP AIP / TFR affecting this airport [VIEW]
Communications frequencies: [VIEW]

Runways:

Airport contact information

Address: Springfield United States

Satellite view of 18VT